createdAt,value
2022-08-26T06:26:11.289Z,94.25
2022-08-26T06:29:15.563Z,93.24
2022-08-26T06:32:27.358Z,94.30
2022-08-26T06:35:30.405Z,88.74
2022-08-26T06:38:34.070Z,91.46
2022-08-26T06:41:45.079Z,89.50
2022-08-26T06:44:51.171Z,79.31
2022-08-26T06:47:54.274Z,74.50
2022-08-26T06:51:22.343Z,71.03
2022-08-26T06:54:31.719Z,70.56
2022-08-26T06:57:37.708Z,70.59
2022-08-26T07:00:47.203Z,67.10
2022-08-26T07:03:52.939Z,61.89
2022-08-26T07:06:57.370Z,66.12
2022-08-26T07:10:00.178Z,65.85
2022-08-26T07:13:04.682Z,67.84
2022-08-26T07:16:12.076Z,67.89
2022-08-26T07:19:27.602Z,61.61
2022-08-26T07:22:34.348Z,66.00
2022-08-26T07:25:42.258Z,67.05
2022-08-26T07:28:48.829Z,65.49
2022-08-26T07:31:52.089Z,61.50
2022-08-26T07:34:54.851Z,64.60
2022-08-26T07:37:57.887Z,62.36
2022-08-26T07:41:01.844Z,62.25
2022-08-26T07:44:05.314Z,59.60
2022-08-26T07:47:10.466Z,63.34
2022-08-26T07:50:49.223Z,59.67
2022-08-26T07:53:52.504Z,59.08
2022-08-26T07:56:56.198Z,61.89
2022-08-26T07:59:59.778Z,60.00
2022-08-26T08:03:05.719Z,61.00
2022-08-26T08:06:09.737Z,61.28
2022-08-26T08:09:16.107Z,53.71
2022-08-26T08:12:20.573Z,55.96
2022-08-26T08:15:26.603Z,58.57
2022-08-26T08:18:29.714Z,56.51
2022-08-26T08:21:32.420Z,53.42
2022-08-26T08:24:35.832Z,56.55
2022-08-26T08:27:40.213Z,57.93
2022-08-26T08:30:43.222Z,57.91
2022-08-26T08:33:47.471Z,50.18
2022-08-26T08:36:53.564Z,53.89
2022-08-26T08:39:56.836Z,56.44
2022-08-26T08:43:04.056Z,48.85
2022-08-26T08:46:16.749Z,54.28
2022-08-26T08:49:25.955Z,51.71
2022-08-26T08:52:35.212Z,52.44
2022-08-26T08:56:17.150Z,51.15
2022-08-26T08:59:26.423Z,51.75
2022-08-26T09:02:37.200Z,54.12
2022-08-26T09:05:48.563Z,55.21
2022-08-26T09:08:52.415Z,51.73
2022-08-26T09:12:01.748Z,47.64
2022-08-26T09:15:11.493Z,52.93
2022-08-26T09:18:47.682Z,51.23
2022-08-26T09:21:56.868Z,55.85
2022-08-26T09:24:59.638Z,46.82
2022-08-26T09:28:02.908Z,48.53
2022-08-26T09:31:20.106Z,45.00
2022-08-26T09:34:28.418Z,51.97
2022-08-26T09:41:26.699Z,51.81
2022-08-26T09:44:29.913Z,49.52
2022-08-26T09:47:48.078Z,49.12
2022-08-26T09:50:58.249Z,47.23
2022-08-26T09:54:05.700Z,48.30
2022-08-26T09:57:20.949Z,49.39
2022-08-26T10:00:27.529Z,45.55
2022-08-26T10:03:33.331Z,49.88
2022-08-26T10:06:43.033Z,45.47
2022-08-26T10:46:41.369Z,43.60
2022-08-26T10:49:47.711Z,42.69
2022-08-26T10:53:10.628Z,48.99
2022-08-26T10:56:44.826Z,43.60
2022-08-26T11:00:27.567Z,48.48
2022-08-26T11:03:48.890Z,47.49
2022-08-26T11:07:31.734Z,50.67
2022-08-26T11:10:59.495Z,48.12
2022-08-26T11:14:07.660Z,39.88
2022-08-26T11:17:11.789Z,43.32
2022-08-26T11:20:23.901Z,48.20
2022-08-26T11:23:38.609Z,42.38
2022-08-26T11:26:55.483Z,38.21
2022-08-26T11:30:18.359Z,41.87
2022-08-26T11:33:43.953Z,43.68
2022-08-26T11:36:47.332Z,43.80
2022-08-26T11:39:57.028Z,41.12
2022-08-26T11:43:08.518Z,42.01
2022-08-26T11:46:13.021Z,46.51
2022-08-26T11:49:17.409Z,39.14
2022-08-26T11:52:22.287Z,38.77
2022-08-26T11:55:28.020Z,41.73
2022-08-26T11:58:32.182Z,40.72
2022-08-26T12:01:40.687Z,45.47
2022-08-26T12:04:48.579Z,43.87
2022-08-26T12:07:53.065Z,40.55
2022-08-26T12:11:10.684Z,39.27
2022-08-26T12:14:25.415Z,39.13
2022-08-26T12:17:31.898Z,37.27
2022-08-26T12:20:46.567Z,37.75
2022-08-26T12:23:52.792Z,38.65
2022-08-26T12:27:15.254Z,40.38
2022-08-26T12:30:24.369Z,42.25
2022-08-26T12:33:29.767Z,38.19
2022-08-26T12:36:55.477Z,36.12
2022-08-26T12:40:40.743Z,35.93
2022-08-26T12:43:45.393Z,41.77
2022-08-26T12:46:49.847Z,36.67
2022-08-26T12:50:22.130Z,38.11
2022-08-26T12:53:40.901Z,36.83
2022-08-26T12:56:43.981Z,35.71
2022-08-26T12:59:46.732Z,37.01
2022-08-26T13:02:49.849Z,35.36
2022-08-26T13:06:34.759Z,34.02
2022-08-26T13:09:38.545Z,35.58
2022-08-26T13:12:42.039Z,32.77
2022-08-26T13:15:45.073Z,37.31
2022-08-26T13:18:49.413Z,34.97
2022-08-26T13:21:55.879Z,33.59
2022-08-26T13:24:58.644Z,35.30
2022-08-26T13:28:04.444Z,32.42
2022-08-26T13:31:07.216Z,34.28
2022-08-26T13:34:14.238Z,32.59
2022-08-26T13:37:17.141Z,32.96
2022-08-26T13:40:20.255Z,32.95
2022-08-26T13:43:23.048Z,33.06
2022-08-26T13:46:27.341Z,32.29
2022-08-26T13:49:30.266Z,32.06
2022-08-26T13:52:33.462Z,33.53
2022-08-26T13:55:36.314Z,35.17
2022-08-26T13:58:39.422Z,35.31
2022-08-26T14:01:42.390Z,32.82
2022-08-26T14:04:45.387Z,33.80
2022-08-26T14:07:48.072Z,34.25
2022-08-26T14:10:51.180Z,33.11
2022-08-26T14:13:53.873Z,32.95
2022-08-26T14:16:59.385Z,33.19
2022-08-26T14:20:03.067Z,33.15
2022-08-26T14:23:14.422Z,33.41
2022-08-26T14:26:28.435Z,31.95
2022-08-26T14:29:34.723Z,32.16
2022-08-26T14:32:42.951Z,34.49
2022-08-26T14:35:47.992Z,36.89
2022-08-26T14:38:52.470Z,34.49
2022-08-26T14:41:56.633Z,33.93
2022-08-26T14:45:02.956Z,35.68
2022-08-26T14:48:06.012Z,33.67
2022-08-26T14:51:08.848Z,33.66
2022-08-26T14:54:13.561Z,35.61
2022-08-26T14:57:16.460Z,34.82
2022-08-26T15:00:20.835Z,33.47
2022-08-26T15:03:23.591Z,34.49
2022-08-26T15:06:27.543Z,35.02
2022-08-26T15:09:33.396Z,37.02
2022-08-26T15:12:36.388Z,36.79
2022-08-26T15:15:39.206Z,36.07
2022-08-26T15:18:42.328Z,34.49
2022-08-26T15:21:47.052Z,34.40
2022-08-26T15:24:53.627Z,34.38
2022-08-26T15:27:56.652Z,34.44
2022-08-26T15:31:00.615Z,36.15
2022-08-26T15:34:06.770Z,33.31
2022-08-26T15:37:10.142Z,34.61
2022-08-26T15:40:12.940Z,35.53
2022-08-26T15:43:28.717Z,35.74
2022-08-26T15:46:32.151Z,35.69
2022-08-26T15:49:35.292Z,35.97
2022-08-26T15:52:40.259Z,36.39
2022-08-26T15:55:43.398Z,35.16
2022-08-26T15:58:46.840Z,42.21
2022-08-26T16:01:51.529Z,44.95
2022-08-26T16:04:54.600Z,45.32
2022-08-26T16:07:57.876Z,38.45
2022-08-26T16:11:03.716Z,41.47
2022-08-26T16:14:07.232Z,39.70
2022-08-26T16:17:11.556Z,40.06
2022-08-26T16:20:14.219Z,42.28
2022-08-26T16:23:18.102Z,44.41
2022-08-26T16:26:25.768Z,41.72
2022-08-26T16:29:28.874Z,42.20
2022-08-26T16:32:31.661Z,48.84
2022-08-26T16:35:35.323Z,50.06
2022-08-26T16:38:39.005Z,52.96
2022-08-26T16:41:42.323Z,56.57
2022-08-26T16:44:45.159Z,59.34
2022-08-26T16:47:48.768Z,59.57
2022-08-26T16:50:52.042Z,61.10
2022-08-26T16:53:56.583Z,63.73
2022-08-26T16:56:59.294Z,70.78
2022-08-26T17:00:06.555Z,69.92
2022-08-26T17:03:09.488Z,72.10
2022-08-26T17:06:13.182Z,74.35
2022-08-26T17:09:16.022Z,73.25
2022-08-26T17:12:19.122Z,74.69
2022-08-26T17:15:25.468Z,73.39
2022-08-26T17:18:30.113Z,72.71
2022-08-26T17:21:34.954Z,70.45
2022-08-26T17:24:38.003Z,72.29
2022-08-26T17:27:40.997Z,75.28
2022-08-26T17:30:46.180Z,75.62
2022-08-26T17:33:53.957Z,76.78
2022-08-26T17:36:57.294Z,77.78
2022-08-26T17:40:00.163Z,78.84
2022-08-26T17:43:03.226Z,79.36
2022-08-26T17:46:08.825Z,79.88
2022-08-26T17:49:11.955Z,80.96
2022-08-26T17:52:14.738Z,79.42
2022-08-26T17:55:19.168Z,80.81
2022-08-26T17:58:23.788Z,81.74
2022-08-26T18:01:28.407Z,83.00
2022-08-26T18:04:31.940Z,84.24
2022-08-26T18:07:39.035Z,83.21
2022-08-26T18:10:47.323Z,87.49
2022-08-26T18:13:50.215Z,87.11
2022-08-26T18:16:53.615Z,88.82
2022-08-26T18:20:04.158Z,90.26
2022-08-26T18:23:07.584Z,91.11
2022-08-26T18:26:16.450Z,90.75
2022-08-26T18:29:19.702Z,89.76
2022-08-26T18:32:30.687Z,90.79
2022-08-26T18:35:42.231Z,91.83
2022-08-26T18:39:06.893Z,94.09
2022-08-26T18:42:09.948Z,95.00
2022-08-26T18:45:16.070Z,93.01
2022-08-26T18:48:19.899Z,95.92
2022-08-26T18:51:26.351Z,94.92
